createdAt,value
2022-10-04T00:01:09.078Z,96219.03
2022-10-04T00:03:42.055Z,96218.84
2022-10-04T00:06:17.164Z,96216.19
2022-10-04T00:08:52.057Z,96225.06
2022-10-04T00:11:23.902Z,96220.06
2022-10-04T00:13:55.173Z,96210.50
2022-10-04T00:16:27.961Z,96217.19
2022-10-04T00:19:24.955Z,96215.25
2022-10-04T00:22:17.351Z,96207.41
2022-10-04T00:25:22.325Z,96206.66
2022-10-04T00:28:29.725Z,96204.63
2022-10-04T00:31:20.002Z,96208.00
2022-10-04T00:33:49.649Z,96194.81
2022-10-04T00:36:39.805Z,96199.44
2022-10-04T00:39:27.267Z,96204.13
2022-10-04T00:42:19.378Z,96205.25
2022-10-04T00:44:52.781Z,96207.94
2022-10-04T00:47:31.712Z,96195.44
2022-10-04T00:50:08.486Z,96192.59
2022-10-04T00:52:42.293Z,96192.06
2022-10-04T00:55:15.592Z,96186.34
2022-10-04T00:57:46.710Z,96176.06
2022-10-04T01:00:18.097Z,96184.31
2022-10-04T01:02:53.953Z,96183.34
2022-10-04T01:05:26.526Z,96180.75
2022-10-04T01:08:04.394Z,96189.63
2022-10-04T01:10:35.536Z,96191.31
2022-10-04T01:13:10.866Z,96188.63
2022-10-04T01:15:44.779Z,96184.97
2022-10-04T01:18:29.632Z,96178.41
2022-10-04T01:21:01.875Z,96171.72
2022-10-04T01:23:37.686Z,96176.03
2022-10-04T01:26:08.040Z,96183.34
2022-10-04T01:28:36.886Z,96172.59
2022-10-04T01:31:04.696Z,96163.00
2022-10-04T01:33:32.401Z,96161.84
2022-10-04T01:36:00.102Z,96166.91
2022-10-04T01:38:27.858Z,96168.94
2022-10-04T01:41:00.999Z,96166.47
2022-10-04T01:43:33.788Z,96163.94
2022-10-04T01:46:07.268Z,96161.41
2022-10-04T01:48:39.106Z,96159.56
2022-10-04T01:51:14.350Z,96153.22
2022-10-04T01:53:47.157Z,96151.22
2022-10-04T01:56:20.398Z,96146.34
2022-10-04T01:58:51.076Z,96141.06
2022-10-04T02:01:28.484Z,96144.63
2022-10-04T02:04:02.350Z,96137.00
2022-10-04T02:06:36.389Z,96130.91
2022-10-04T02:09:11.264Z,96134.16
2022-10-04T02:11:42.367Z,96127.41
2022-10-04T02:14:16.396Z,96125.78
2022-10-04T02:16:46.410Z,96132.66
2022-10-04T02:19:16.285Z,96131.50
2022-10-04T02:21:45.147Z,96126.38
2022-10-04T02:24:13.656Z,96129.25
2022-10-04T02:26:42.737Z,96125.16
2022-10-04T02:29:11.090Z,96125.38
2022-10-04T02:31:57.561Z,96125.22
2022-10-04T02:34:25.370Z,96119.91
2022-10-04T02:36:53.115Z,96117.88
2022-10-04T02:39:25.925Z,96124.22
2022-10-04T02:41:59.925Z,96128.75
2022-10-04T02:44:31.353Z,96141.31
2022-10-04T02:47:07.125Z,96138.44
2022-10-04T02:49:38.516Z,96135.59
2022-10-04T02:52:11.847Z,96129.19
2022-10-04T02:54:44.112Z,96132.69
2022-10-04T02:57:18.031Z,96134.75
2022-10-04T02:59:45.917Z,96133.28
2022-10-04T03:02:29.420Z,96132.66
2022-10-04T03:05:01.256Z,96130.84
2022-10-04T03:07:29.020Z,96121.59
2022-10-04T03:09:56.739Z,96123.28
2022-10-04T03:12:26.203Z,96120.03
2022-10-04T03:14:54.281Z,96123.53
2022-10-04T03:17:23.091Z,96119.03
2022-10-04T03:19:51.232Z,96120.31
2022-10-04T03:22:19.769Z,96121.72
2022-10-04T03:24:50.032Z,96128.09
2022-10-04T03:27:22.659Z,96122.81
2022-10-04T03:29:55.625Z,96119.72
2022-10-04T03:32:27.099Z,96116.84
2022-10-04T03:34:58.986Z,96107.59
2022-10-04T03:37:29.492Z,96117.50
2022-10-04T03:39:59.818Z,96112.56
2022-10-04T03:42:31.282Z,96121.63
2022-10-04T03:45:02.966Z,96130.72
2022-10-04T03:47:33.362Z,96128.66
2022-10-04T03:50:06.104Z,96120.88
2022-10-04T03:52:37.606Z,96120.13
2022-10-04T03:55:08.043Z,96124.66
2022-10-04T03:57:37.898Z,96116.22
2022-10-04T04:00:08.131Z,96119.91
2022-10-04T04:02:43.681Z,96123.00
2022-10-04T04:05:20.405Z,96128.75
2022-10-04T04:07:52.397Z,96126.44
2022-10-04T04:10:24.719Z,96128.50
2022-10-04T04:12:58.130Z,96122.38
2022-10-04T04:15:30.384Z,96121.16
2022-10-04T04:18:02.499Z,96113.88
2022-10-04T04:20:33.864Z,96117.38
2022-10-04T04:23:05.095Z,96114.72
2022-10-04T04:25:38.163Z,96109.41
2022-10-04T04:28:20.657Z,96114.56
2022-10-04T04:30:52.955Z,96113.53
2022-10-04T04:33:29.706Z,96115.41
2022-10-04T04:36:05.122Z,96122.81
2022-10-04T04:38:33.060Z,96120.56
2022-10-04T04:41:10.912Z,96129.81
2022-10-04T04:43:44.621Z,96128.63
2022-10-04T04:46:27.677Z,96128.22
2022-10-04T04:49:02.474Z,96120.22
2022-10-04T04:51:32.409Z,96128.22
2022-10-04T04:54:03.439Z,96127.41
2022-10-04T04:56:31.990Z,96123.97
2022-10-04T04:59:04.162Z,96115.75
2022-10-04T05:01:36.622Z,96121.84
2022-10-04T05:04:06.515Z,96113.63
2022-10-04T05:06:35.860Z,96111.97
2022-10-04T05:09:05.158Z,96115.88
2022-10-04T05:11:35.255Z,96120.00
2022-10-04T05:14:07.438Z,96119.13
2022-10-04T05:16:41.455Z,96117.31
2022-10-04T05:19:15.393Z,96123.50
2022-10-04T05:21:46.510Z,96129.47
2022-10-04T05:24:30.278Z,96125.75
2022-10-04T05:27:01.103Z,96125.25
2022-10-04T05:29:33.912Z,96129.56
2022-10-04T05:32:13.466Z,96136.16
2022-10-04T05:34:43.325Z,96132.00
2022-10-04T05:37:34.562Z,96133.22
2022-10-04T05:40:14.815Z,96135.81
2022-10-04T05:42:45.679Z,96129.53
2022-10-04T05:45:20.021Z,96125.50
2022-10-04T05:47:51.380Z,96113.47
2022-10-04T05:50:23.566Z,96103.88
2022-10-04T05:52:53.210Z,96099.63
2022-10-04T05:55:31.956Z,96109.00
2022-10-04T05:58:33.026Z,96107.50
2022-10-04T06:01:17.725Z,96109.16
2022-10-04T06:04:01.465Z,96111.47
2022-10-04T06:06:37.085Z,96113.31
2022-10-04T06:09:14.479Z,96111.09
2022-10-04T06:11:55.722Z,96116.72
2022-10-04T06:14:48.196Z,96125.72
2022-10-04T06:17:30.087Z,96126.50
2022-10-04T06:20:14.003Z,96121.91
2022-10-04T06:22:45.802Z,96111.56
2022-10-04T06:25:18.389Z,96106.09
2022-10-04T06:27:53.922Z,96111.34
2022-10-04T06:30:22.053Z,96112.50
2022-10-04T06:33:28.875Z,96107.47
2022-10-04T06:36:10.223Z,96109.47
2022-10-04T06:39:04.262Z,96110.38
2022-10-04T06:41:43.711Z,96110.28
2022-10-04T06:44:49.527Z,96114.94
2022-10-04T06:47:43.299Z,96115.88
2022-10-04T06:50:25.230Z,96107.31
2022-10-04T06:53:16.524Z,96101.31
2022-10-04T06:56:10.612Z,96104.44
2022-10-04T06:59:07.835Z,96108.22
2022-10-04T07:01:37.597Z,96107.56
2022-10-04T07:04:21.846Z,96098.13
2022-10-04T07:07:16.979Z,96095.81
2022-10-04T07:09:48.213Z,96090.03
2022-10-04T07:12:18.060Z,96086.66
2022-10-04T07:14:49.061Z,96092.84
2022-10-04T07:17:23.620Z,96101.59
2022-10-04T07:19:53.596Z,96094.13
2022-10-04T07:22:29.386Z,96089.44
2022-10-04T07:25:14.698Z,96099.31
2022-10-04T07:28:13.746Z,96101.34
2022-10-04T07:30:47.293Z,96097.19
2022-10-04T07:33:19.665Z,96091.38
2022-10-04T07:35:51.495Z,96094.53
2022-10-04T07:38:25.594Z,96098.94
2022-10-04T07:41:08.414Z,96101.19
2022-10-04T07:43:49.181Z,96101.84
2022-10-04T07:46:25.435Z,96091.63
2022-10-04T07:48:53.673Z,96095.16
2022-10-04T07:51:30.933Z,96091.41
2022-10-04T07:54:05.787Z,96098.75
2022-10-04T07:56:38.373Z,96092.78
2022-10-04T07:59:23.490Z,96103.13
2022-10-04T08:02:01.958Z,96108.81
2022-10-04T08:04:39.660Z,96106.88
2022-10-04T08:07:18.725Z,96104.44
2022-10-04T08:09:57.979Z,96110.09
2022-10-04T08:12:41.843Z,96119.34
2022-10-04T08:15:34.260Z,96114.44
2022-10-04T08:18:12.013Z,96118.97
2022-10-04T08:20:47.864Z,96109.34
2022-10-04T08:23:32.586Z,96108.50
2022-10-04T08:26:13.541Z,96105.66
2022-10-04T08:29:08.335Z,96109.72
2022-10-04T08:31:46.188Z,96110.25
2022-10-04T08:34:32.371Z,96101.19
2022-10-04T08:37:10.103Z,96103.72
2022-10-04T08:39:53.767Z,96107.84
2022-10-04T08:43:07.003Z,96106.06
2022-10-04T08:46:09.732Z,96108.00
2022-10-04T08:49:11.793Z,96101.88
2022-10-04T08:52:08.851Z,96093.31
2022-10-04T08:55:12.730Z,96092.34
2022-10-04T08:58:02.622Z,96091.91
2022-10-04T09:00:46.878Z,96090.66
2022-10-04T09:03:53.648Z,96087.84
2022-10-04T09:06:45.031Z,96077.84
2022-10-04T09:09:44.413Z,96074.75
2022-10-04T09:12:44.364Z,96072.78
2022-10-04T09:15:38.771Z,96070.75
2022-10-04T09:18:22.601Z,96071.28
2022-10-04T09:20:59.067Z,96072.69
2022-10-04T09:23:58.916Z,96077.63
2022-10-04T09:26:37.381Z,96071.19
2022-10-04T09:29:38.086Z,96075.03
2022-10-04T09:32:48.546Z,96078.88
2022-10-04T09:35:52.928Z,96083.34
2022-10-04T09:39:01.227Z,96088.59
2022-10-04T09:41:49.058Z,96080.50
2022-10-04T09:44:48.338Z,96078.97
2022-10-04T09:47:37.764Z,96068.97
2022-10-04T09:50:39.821Z,96056.81
2022-10-04T09:53:24.305Z,96062.59
2022-10-04T09:56:13.567Z,96060.03
2022-10-04T09:59:21.874Z,96051.63
2022-10-04T10:02:29.277Z,96061.72
2022-10-04T10:05:29.976Z,96060.66
2022-10-04T10:08:09.887Z,96071.69
2022-10-04T10:11:02.584Z,96073.56
2022-10-04T10:13:53.841Z,96080.13
2022-10-04T10:16:32.269Z,96069.34
2022-10-04T10:19:37.051Z,96056.53
2022-10-04T10:22:22.680Z,96054.19
2022-10-04T10:25:12.352Z,96057.19
2022-10-04T10:27:53.940Z,96054.38
2022-10-04T10:30:26.324Z,96055.50
2022-10-04T10:33:32.778Z,96063.53
2022-10-04T10:36:39.463Z,96066.66
2022-10-04T10:39:36.899Z,96073.28
2022-10-04T10:42:33.963Z,96075.47
2022-10-04T10:45:45.623Z,96080.97
2022-10-04T10:48:18.432Z,96081.28
2022-10-04T10:51:03.710Z,96082.84
2022-10-04T10:54:07.993Z,96087.84
2022-10-04T10:56:43.624Z,96084.22
2022-10-04T10:59:53.089Z,96085.88
2022-10-04T11:02:50.483Z,96086.03
2022-10-04T11:05:53.454Z,96083.53
2022-10-04T11:08:55.437Z,96067.50
2022-10-04T11:11:41.852Z,96070.06
2022-10-04T11:14:33.200Z,96059.09
2022-10-04T11:17:39.111Z,96071.53
2022-10-04T11:20:27.322Z,96063.59
2022-10-04T11:23:37.127Z,96059.91
2022-10-04T11:26:27.365Z,96060.53
2022-10-04T11:28:58.934Z,96054.41
2022-10-04T11:32:14.733Z,96055.47
2022-10-04T11:35:12.558Z,96061.16
2022-10-04T11:37:53.855Z,96058.22
2022-10-04T11:40:39.258Z,96056.50
2022-10-04T11:43:31.832Z,96048.81
2022-10-04T11:46:19.010Z,96043.56
2022-10-04T11:49:00.560Z,96043.06
2022-10-04T11:52:02.576Z,96041.78
2022-10-04T11:54:50.138Z,96038.22
2022-10-04T11:57:32.155Z,96037.53
2022-10-04T12:00:10.289Z,96038.81
2022-10-04T12:02:56.183Z,96044.78
2022-10-04T12:05:59.345Z,96040.66
2022-10-04T12:08:38.949Z,96032.09
2022-10-04T12:11:49.159Z,96029.81
2022-10-04T12:14:32.464Z,96031.91
2022-10-04T12:17:41.176Z,96034.53
2022-10-04T12:20:31.763Z,96026.25
2022-10-04T12:23:19.166Z,96019.56
2022-10-04T12:26:15.782Z,96017.69
2022-10-04T12:29:05.876Z,96007.75
2022-10-04T12:31:37.279Z,96003.03
2022-10-04T12:34:15.641Z,95999.66
2022-10-04T12:37:13.730Z,96005.38
2022-10-04T12:39:53.650Z,96003.22
2022-10-04T12:42:36.173Z,95998.59
2022-10-04T12:45:30.533Z,95999.50
2022-10-04T12:48:18.546Z,95996.03
2022-10-04T12:51:00.100Z,96001.59
2022-10-04T12:53:38.718Z,96002.00
2022-10-04T12:56:14.425Z,96002.75
2022-10-04T12:58:58.601Z,96000.03
2022-10-04T13:01:34.800Z,96000.03
2022-10-04T13:04:17.851Z,95992.66
2022-10-04T13:07:00.445Z,95991.59
2022-10-04T13:09:38.954Z,95995.22
2022-10-04T13:12:27.451Z,95988.91
2022-10-04T13:15:25.897Z,95986.72
2022-10-04T13:18:06.750Z,95988.38
2022-10-04T13:20:50.275Z,95988.69
2022-10-04T13:23:32.721Z,95988.88
2022-10-04T13:26:22.714Z,95988.09
2022-10-04T13:29:02.859Z,95984.34
2022-10-04T13:31:37.676Z,95988.34
2022-10-04T13:34:21.263Z,95983.16
2022-10-04T13:37:02.191Z,95980.97
2022-10-04T13:39:45.625Z,95982.22
2022-10-04T13:42:30.537Z,95975.94
2022-10-04T13:45:13.438Z,95983.00
2022-10-04T13:48:03.113Z,95980.88
2022-10-04T13:50:52.834Z,95979.09
2022-10-04T13:53:54.243Z,95985.97
2022-10-04T13:56:45.464Z,95988.91
2022-10-04T13:59:23.986Z,95995.13
2022-10-04T14:02:17.250Z,96002.56
2022-10-04T14:05:18.890Z,96007.41
2022-10-04T14:08:11.166Z,96002.22
2022-10-04T14:11:01.574Z,95998.13
2022-10-04T14:14:11.742Z,95999.59
2022-10-04T14:17:03.759Z,95991.97
2022-10-04T14:20:01.979Z,95992.91
2022-10-04T14:23:00.604Z,96004.19
2022-10-04T14:26:00.449Z,95998.47
2022-10-04T14:29:34.366Z,96000.88
2022-10-04T14:32:40.544Z,96003.53
2022-10-04T14:35:15.795Z,95999.38
2022-10-04T14:38:11.157Z,96003.59
2022-10-04T14:41:04.853Z,96000.41
2022-10-04T14:44:01.887Z,95988.81
2022-10-04T14:46:41.419Z,95994.31
2022-10-04T14:49:19.487Z,95997.69
2022-10-04T14:52:16.670Z,95992.56
2022-10-04T14:54:53.800Z,95994.00
2022-10-04T14:57:38.861Z,96003.22
2022-10-04T15:00:19.098Z,95994.25
2022-10-04T15:03:28.900Z,96002.44
2022-10-04T15:06:13.161Z,96001.91
2022-10-04T15:09:07.433Z,95994.72
2022-10-04T15:12:21.705Z,95998.78
2022-10-04T15:15:01.935Z,96005.53
2022-10-04T15:17:36.407Z,96004.53
2022-10-04T15:20:16.634Z,96009.28
2022-10-04T15:22:48.893Z,96016.50
2022-10-04T15:25:40.190Z,96012.13
2022-10-04T15:28:29.204Z,96010.00
2022-10-04T15:31:05.359Z,96005.75
2022-10-04T15:33:41.148Z,96006.22
2022-10-04T15:36:43.973Z,96014.66
2022-10-04T15:39:36.107Z,96017.91
2022-10-04T15:42:14.139Z,96015.00
2022-10-04T15:44:58.207Z,96016.09
2022-10-04T15:47:30.937Z,96017.44
2022-10-04T15:50:10.944Z,96015.84
2022-10-04T15:53:03.636Z,96017.66
2022-10-04T15:55:49.855Z,96017.75
2022-10-04T15:58:38.883Z,96013.69
2022-10-04T16:01:41.337Z,96016.72
2022-10-04T16:04:24.178Z,96015.84
2022-10-04T16:06:56.218Z,96016.81
2022-10-04T16:09:37.505Z,96016.28
2022-10-04T16:12:21.759Z,96008.03
2022-10-04T16:14:59.771Z,96008.59
2022-10-04T16:17:57.186Z,96013.25
2022-10-04T16:20:52.330Z,96017.31
2022-10-04T16:23:43.816Z,96015.38
2022-10-04T16:26:37.763Z,96016.88
2022-10-04T16:29:25.896Z,96022.13
2022-10-04T16:32:03.140Z,96020.59
2022-10-04T16:34:46.139Z,96015.91
2022-10-04T16:37:31.165Z,96015.91
2022-10-04T16:40:05.860Z,96014.44
2022-10-04T16:42:55.589Z,96021.88
2022-10-04T16:45:40.010Z,96018.44
2022-10-04T16:48:23.279Z,96026.94
2022-10-04T16:51:04.685Z,96032.56
2022-10-04T16:53:46.360Z,96031.31
2022-10-04T16:56:16.467Z,96034.09
2022-10-04T16:58:56.988Z,96036.34
2022-10-04T17:02:17.215Z,96032.56
2022-10-04T17:05:18.135Z,96034.53
2022-10-04T17:08:07.137Z,96035.69
2022-10-04T17:10:54.452Z,96033.19
2022-10-04T17:13:26.548Z,96033.78
2022-10-04T17:16:05.978Z,96039.53
2022-10-04T17:18:49.734Z,96034.38
2022-10-04T17:21:27.818Z,96045.81
2022-10-04T17:24:11.605Z,96037.41
2022-10-04T17:26:48.884Z,96047.19
2022-10-04T17:29:32.460Z,96037.97
2022-10-04T17:32:09.516Z,96043.09
2022-10-04T17:34:57.312Z,96046.38
2022-10-04T17:37:40.024Z,96041.22
2022-10-04T17:40:34.093Z,96044.19
2022-10-04T17:43:12.752Z,96046.66
2022-10-04T17:46:09.154Z,96046.66
2022-10-04T17:49:00.957Z,96046.91
2022-10-04T17:51:58.363Z,96055.81
2022-10-04T17:54:47.067Z,96051.16
2022-10-04T17:57:24.525Z,96061.19
2022-10-04T18:00:00.125Z,96066.06
2022-10-04T18:02:32.697Z,96066.03
2022-10-04T18:05:09.465Z,96070.06
2022-10-04T18:07:44.778Z,96066.56
2022-10-04T18:10:24.690Z,96068.19
2022-10-04T18:13:00.745Z,96062.44
2022-10-04T18:15:32.811Z,96075.41
2022-10-04T18:18:18.679Z,96079.44
2022-10-04T18:21:04.470Z,96076.69
2022-10-04T18:23:37.194Z,96069.38
2022-10-04T18:26:12.300Z,96083.38
2022-10-04T18:28:43.170Z,96086.09
2022-10-04T18:31:29.374Z,96076.91
2022-10-04T18:34:10.510Z,96073.63
2022-10-04T18:36:52.705Z,96085.75
2022-10-04T18:39:22.666Z,96076.72
2022-10-04T18:42:02.246Z,96080.56
2022-10-04T18:44:45.480Z,96095.06
2022-10-04T18:47:21.272Z,96085.25
2022-10-04T18:49:53.303Z,96079.56
2022-10-04T18:52:33.940Z,96092.00
2022-10-04T18:55:18.773Z,96089.00
2022-10-04T18:58:12.696Z,96090.03
2022-10-04T19:01:06.555Z,96087.91
2022-10-04T19:03:45.410Z,96089.75
2022-10-04T19:06:20.743Z,96079.75
2022-10-04T19:08:57.983Z,96082.72
2022-10-04T19:11:35.238Z,96083.25
2022-10-04T19:14:09.514Z,96079.19
2022-10-04T19:16:45.840Z,96074.03
2022-10-04T19:19:37.509Z,96082.09
2022-10-04T19:22:18.893Z,96094.50
2022-10-04T19:25:10.868Z,96095.78
2022-10-04T19:27:46.285Z,96100.59
2022-10-04T19:30:19.010Z,96098.09
2022-10-04T19:33:00.509Z,96105.66
2022-10-04T19:35:40.895Z,96102.06
2022-10-04T19:38:44.484Z,96100.13
2022-10-04T19:41:21.665Z,96110.91
2022-10-04T19:43:55.805Z,96116.25
2022-10-04T19:46:36.145Z,96116.75
2022-10-04T19:49:15.050Z,96113.00
2022-10-04T19:51:51.026Z,96094.81
2022-10-04T19:54:26.002Z,96107.47
2022-10-04T19:56:58.866Z,96096.72
2022-10-04T19:59:35.818Z,96102.44
2022-10-04T20:02:03.764Z,96109.22
2022-10-04T20:04:39.442Z,96107.34
2022-10-04T20:07:13.128Z,96102.69
2022-10-04T20:09:55.915Z,96114.50
2022-10-04T20:12:34.115Z,96117.16
2022-10-04T20:15:27.531Z,96109.81
2022-10-04T20:17:56.331Z,96112.75
2022-10-04T20:20:57.467Z,96108.63
2022-10-04T20:23:56.581Z,96100.53
2022-10-04T20:27:04.432Z,96097.81
2022-10-04T20:30:05.092Z,96098.00
2022-10-04T20:32:54.554Z,96102.84
2022-10-04T20:36:05.865Z,96103.34
2022-10-04T20:38:53.236Z,96111.13
2022-10-04T20:42:00.558Z,96103.31
2022-10-04T20:44:47.219Z,96111.25
2022-10-04T20:47:24.804Z,96109.06
2022-10-04T20:49:56.265Z,96110.13
2022-10-04T20:52:26.278Z,96112.53
2022-10-04T20:54:57.155Z,96104.69
2022-10-04T20:57:25.122Z,96109.75
2022-10-04T20:59:54.589Z,96113.75
2022-10-04T21:02:24.451Z,96119.56
2022-10-04T21:04:53.675Z,96120.03
2022-10-04T21:07:22.990Z,96121.09
2022-10-04T21:09:53.235Z,96120.03
2022-10-04T21:12:33.277Z,96131.81
2022-10-04T21:15:07.048Z,96124.13
2022-10-04T21:17:37.675Z,96130.44
2022-10-04T21:20:07.257Z,96128.25
2022-10-04T21:22:39.764Z,96132.16
2022-10-04T21:25:28.153Z,96133.38
2022-10-04T21:28:23.733Z,96137.31
2022-10-04T21:30:51.490Z,96144.03
2022-10-04T21:33:19.191Z,96144.75
2022-10-04T21:35:46.896Z,96139.59
2022-10-04T21:38:16.712Z,96143.00
2022-10-04T21:40:44.437Z,96137.03
2022-10-04T21:43:13.570Z,96145.38
2022-10-04T21:45:41.276Z,96146.19
2022-10-04T21:48:09.008Z,96150.44
2022-10-04T21:50:36.722Z,96152.22
2022-10-04T21:53:04.403Z,96148.22
2022-10-04T21:55:32.168Z,96156.47
2022-10-04T21:57:59.879Z,96148.19
2022-10-04T22:00:29.014Z,96164.94
2022-10-04T22:02:56.673Z,96163.53
2022-10-04T22:05:24.427Z,96164.25
2022-10-04T22:07:52.094Z,96158.97
2022-10-04T22:10:19.757Z,96161.00
2022-10-04T22:12:47.466Z,96157.50
2022-10-04T22:15:15.180Z,96154.34
2022-10-04T22:17:44.201Z,96144.22
2022-10-04T22:20:11.876Z,96154.41
2022-10-04T22:22:39.973Z,96150.44
2022-10-04T22:25:16.018Z,96147.63
2022-10-04T22:27:43.925Z,96155.25
2022-10-04T22:30:20.488Z,96151.66
2022-10-04T22:32:50.027Z,96144.63
2022-10-04T22:35:19.586Z,96145.34
2022-10-04T22:37:48.206Z,96143.47
2022-10-04T22:40:19.903Z,96143.38
2022-10-04T22:42:51.421Z,96144.22
2022-10-04T22:45:24.693Z,96142.59
2022-10-04T22:47:56.982Z,96148.44
2022-10-04T22:50:34.887Z,96138.66
2022-10-04T22:53:05.902Z,96138.88
2022-10-04T22:55:33.656Z,96141.81
2022-10-04T22:58:02.754Z,96156.09
2022-10-04T23:05:28.742Z,96156.81
2022-10-04T23:07:56.518Z,96151.66
2022-10-04T23:10:24.204Z,96154.94
2022-10-04T23:12:51.990Z,96158.91
2022-10-04T23:15:21.619Z,96160.47
2022-10-04T23:17:55.449Z,96164.78
2022-10-04T23:20:23.749Z,96159.16
2022-10-04T23:22:55.410Z,96151.34
2022-10-04T23:25:27.173Z,96156.59
2022-10-04T23:27:57.790Z,96162.78
2022-10-04T23:30:26.065Z,96161.63
2022-10-04T23:32:58.484Z,96159.50
2022-10-04T23:35:31.114Z,96166.75
2022-10-04T23:38:03.567Z,96168.88
2022-10-04T23:40:31.221Z,96165.81
2022-10-04T23:43:06.621Z,96173.31
2022-10-04T23:45:35.323Z,96166.31
2022-10-04T23:48:03.052Z,96159.75
2022-10-04T23:50:33.809Z,96160.44
2022-10-04T23:53:07.406Z,96161.84
2022-10-04T23:55:37.387Z,96168.28
2022-10-04T23:58:14.005Z,96163.81
